createdAt,value
2017-11-26T00:00:12.597Z,24.00
2017-11-26T00:01:11.952Z,31.80
2017-11-26T00:02:12.010Z,27.30
2017-11-26T00:03:11.585Z,26.20
2017-11-26T00:04:12.189Z,29.50
2017-11-26T00:05:13.436Z,22.30
2017-11-26T00:06:13.012Z,29.80
2017-11-26T00:07:12.598Z,21.90
2017-11-26T00:08:11.652Z,26.90
2017-11-26T00:09:12.585Z,23.60
2017-11-26T00:10:12.343Z,22.00
2017-11-26T00:11:11.671Z,24.20
2017-11-26T00:12:12.464Z,18.30
2017-11-26T00:13:11.797Z,20.60
2017-11-26T00:14:11.334Z,18.30
2017-11-26T00:15:12.182Z,16.40
2017-11-26T00:16:12.227Z,17.20
2017-11-26T00:17:11.644Z,17.20
2017-11-26T00:18:11.951Z,19.30
2017-11-26T00:19:11.885Z,20.70
2017-11-26T00:20:11.757Z,18.90
2017-11-26T00:21:12.392Z,20.60
2017-11-26T00:22:11.248Z,21.50
2017-11-26T00:23:12.007Z,23.70
2017-11-26T00:24:13.192Z,20.50
2017-11-26T00:25:12.056Z,23.20
2017-11-26T00:26:12.012Z,21.40
2017-11-26T00:27:12.291Z,16.40
2017-11-26T00:28:11.921Z,22.10
2017-11-26T00:29:14.590Z,17.50
2017-11-26T00:30:11.932Z,18.30
2017-11-26T00:31:12.075Z,17.90
2017-11-26T00:32:11.270Z,20.00
2017-11-26T00:33:12.147Z,21.00
2017-11-26T00:34:11.733Z,21.30
2017-11-26T00:35:13.926Z,26.20
2017-11-26T00:36:12.089Z,24.20
2017-11-26T00:37:12.071Z,20.90
2017-11-26T00:38:12.218Z,17.70
2017-11-26T00:39:15.648Z,21.00
2017-11-26T00:40:12.678Z,23.60
2017-11-26T00:41:11.482Z,24.30
2017-11-26T00:42:12.980Z,25.50
2017-11-26T00:43:11.301Z,24.00
2017-11-26T00:44:11.737Z,22.30
2017-11-26T00:45:11.220Z,27.20
2017-11-26T00:46:12.138Z,24.40
2017-11-26T00:47:13.720Z,25.60
2017-11-26T00:48:11.794Z,23.60
2017-11-26T00:49:12.039Z,27.40
2017-11-26T00:50:13.262Z,26.20
2017-11-26T00:51:12.209Z,23.20
2017-11-26T00:52:11.468Z,26.00
2017-11-26T00:53:12.820Z,24.20
2017-11-26T00:54:12.765Z,24.90
2017-11-26T00:55:11.824Z,27.10
2017-11-26T00:56:12.568Z,27.50
2017-11-26T00:57:11.733Z,23.50
2017-11-26T00:58:12.792Z,22.80
2017-11-26T00:59:11.857Z,25.10
2017-11-26T01:00:12.595Z,24.90
2017-11-26T01:01:11.785Z,26.70
2017-11-26T01:02:12.342Z,25.50
2017-11-26T01:03:17.435Z,30.30
2017-11-26T01:04:11.441Z,25.20
2017-11-26T01:05:11.289Z,25.20
2017-11-26T01:10:35.472Z,29.90
2017-11-26T01:11:35.258Z,27.50
2017-11-26T01:12:35.242Z,23.60
2017-11-26T01:13:35.290Z,26.40
2017-11-26T01:14:35.945Z,22.60
2017-11-26T01:15:36.078Z,23.30
2017-11-26T01:16:36.062Z,23.20
2017-11-26T01:17:35.108Z,27.70
2017-11-26T01:18:36.050Z,22.00
2017-11-26T01:19:35.402Z,25.10
2017-11-26T01:20:35.633Z,29.50
2017-11-26T01:21:36.046Z,26.80
2017-11-26T01:22:35.906Z,26.90
2017-11-26T01:23:36.816Z,24.70
2017-11-26T01:24:35.705Z,24.40
2017-11-26T01:25:36.699Z,23.60
2017-11-26T01:26:36.355Z,24.70
2017-11-26T01:27:35.241Z,20.70
2017-11-26T01:28:36.033Z,18.30
2017-11-26T01:29:35.584Z,25.90
2017-11-26T01:30:35.397Z,18.20
2017-11-26T01:31:37.413Z,23.10
2017-11-26T01:32:36.490Z,21.30
2017-11-26T01:33:35.781Z,20.90
2017-11-26T01:34:35.268Z,21.20
2017-11-26T01:35:35.450Z,21.40
2017-11-26T01:36:35.670Z,27.00
2017-11-26T01:37:36.289Z,22.10
2017-11-26T01:38:36.568Z,17.30
2017-11-26T01:39:35.311Z,18.30
2017-11-26T01:40:34.942Z,20.50
2017-11-26T01:41:35.794Z,21.30
2017-11-26T01:42:36.600Z,24.70
2017-11-26T01:43:35.493Z,23.20
2017-11-26T01:44:35.773Z,22.10
2017-11-26T01:45:35.459Z,21.70
2017-11-26T01:46:35.365Z,26.60
2017-11-26T01:47:35.471Z,20.50
2017-11-26T01:48:35.397Z,24.80
2017-11-26T01:49:35.628Z,29.50
2017-11-26T01:50:35.048Z,20.80
2017-11-26T01:51:34.654Z,26.90
2017-11-26T01:52:34.755Z,20.10
2017-11-26T01:53:35.171Z,21.90
2017-11-26T01:54:35.459Z,25.10
2017-11-26T01:55:35.352Z,27.40
2017-11-26T01:56:36.149Z,25.90
2017-11-26T01:57:35.638Z,32.10
2017-11-26T01:58:35.801Z,28.30
2017-11-26T01:59:35.707Z,31.90
2017-11-26T02:00:35.108Z,34.90
2017-11-26T02:01:35.282Z,40.70
2017-11-26T02:02:35.456Z,32.70
2017-11-26T02:03:35.771Z,35.20
2017-11-26T02:04:35.515Z,32.20
2017-11-26T02:05:36.609Z,34.70
2017-11-26T02:06:36.292Z,32.30
2017-11-26T02:07:35.985Z,39.80
2017-11-26T02:08:35.826Z,40.90
2017-11-26T02:09:35.665Z,37.90
2017-11-26T02:10:35.229Z,38.50
2017-11-26T02:11:35.776Z,33.50
2017-11-26T02:12:35.521Z,34.80
2017-11-26T02:13:35.637Z,34.50
2017-11-26T02:14:34.883Z,34.60
2017-11-26T02:15:35.478Z,35.30
2017-11-26T02:16:35.269Z,39.70
2017-11-26T02:17:34.900Z,35.30
2017-11-26T02:18:35.349Z,36.40
2017-11-26T02:19:35.709Z,34.80
2017-11-26T02:20:35.270Z,35.00
2017-11-26T02:21:34.933Z,33.30
2017-11-26T02:22:35.366Z,32.20
2017-11-26T02:23:35.491Z,35.20
2017-11-26T02:24:34.979Z,34.80
2017-11-26T02:25:35.396Z,36.20
2017-11-26T02:26:35.474Z,34.90
2017-11-26T02:27:35.161Z,35.20
2017-11-26T02:28:34.762Z,33.70
2017-11-26T02:29:35.134Z,32.00
2017-11-26T02:30:35.248Z,30.50
2017-11-26T02:31:35.234Z,37.30
2017-11-26T02:32:35.760Z,32.90
2017-11-26T02:33:34.946Z,42.30
2017-11-26T02:34:35.697Z,32.50
2017-11-26T02:35:35.560Z,33.00
2017-11-26T02:36:35.629Z,32.60
2017-11-26T02:37:35.434Z,37.90
2017-11-26T02:38:34.926Z,35.30
2017-11-26T02:39:35.641Z,32.10
2017-11-26T02:40:35.328Z,31.90
2017-11-26T02:41:35.962Z,37.50
2017-11-26T02:42:35.095Z,36.10
2017-11-26T02:43:35.649Z,33.10
2017-11-26T02:44:35.295Z,35.50
2017-11-26T02:45:35.099Z,35.30
2017-11-26T02:46:35.620Z,36.20
2017-11-26T02:47:35.170Z,29.80
2017-11-26T02:48:35.008Z,37.30
2017-11-26T02:49:35.011Z,33.10
2017-11-26T02:50:35.634Z,37.80
2017-11-26T02:51:35.282Z,32.90
2017-11-26T02:52:36.095Z,29.90
2017-11-26T02:53:35.883Z,34.70
2017-11-26T02:54:35.619Z,33.50
2017-11-26T02:55:35.335Z,29.20
2017-11-26T02:56:34.939Z,41.20
2017-11-26T02:57:35.368Z,32.40
2017-11-26T02:58:36.145Z,36.90
2017-11-26T02:59:35.091Z,34.70
2017-11-26T03:00:35.586Z,38.30
2017-11-26T03:01:35.202Z,35.30
2017-11-26T03:02:35.674Z,36.40
2017-11-26T03:03:35.571Z,35.50
2017-11-26T03:04:35.422Z,32.50
2017-11-26T03:05:34.955Z,28.80
2017-11-26T03:06:35.622Z,33.80
2017-11-26T03:07:35.139Z,40.30
2017-11-26T03:08:35.698Z,33.10
2017-11-26T03:09:35.573Z,37.10
2017-11-26T03:10:35.124Z,28.10
2017-11-26T03:11:35.775Z,28.40
2017-11-26T03:12:35.463Z,30.60
2017-11-26T03:13:35.287Z,34.10
2017-11-26T03:14:34.835Z,33.80
2017-11-26T03:15:35.442Z,29.10
2017-11-26T03:16:35.693Z,30.20
2017-11-26T03:17:35.284Z,29.70
2017-11-26T03:18:34.923Z,37.20
2017-11-26T03:19:35.430Z,32.10
2017-11-26T03:20:34.989Z,29.60
2017-11-26T03:21:35.479Z,30.00
2017-11-26T03:22:35.041Z,32.00
2017-11-26T03:23:35.682Z,29.30
2017-11-26T03:24:35.392Z,31.00
2017-11-26T03:25:35.369Z,26.90
2017-11-26T03:26:35.041Z,29.50
2017-11-26T03:27:35.749Z,27.10
2017-11-26T03:28:35.747Z,30.20
2017-11-26T03:29:35.383Z,31.60
2017-11-26T03:30:35.628Z,28.70
2017-11-26T03:31:35.347Z,31.60
2017-11-26T03:32:35.513Z,30.00
2017-11-26T03:33:35.008Z,30.40
2017-11-26T03:34:35.297Z,29.80
2017-11-26T03:35:34.882Z,31.20
2017-11-26T03:36:35.488Z,29.00
2017-11-26T03:37:36.995Z,30.50
2017-11-26T03:38:35.870Z,32.70
2017-11-26T03:39:35.534Z,24.90
2017-11-26T03:40:35.128Z,24.30
2017-11-26T03:41:35.390Z,26.40
2017-11-26T03:42:34.943Z,28.60
2017-11-26T03:43:35.861Z,26.80
2017-11-26T03:44:35.451Z,23.60
2017-11-26T03:45:35.253Z,26.80
2017-11-26T03:46:35.696Z,29.00
2017-11-26T03:47:35.325Z,28.90
2017-11-26T03:48:35.526Z,27.70
2017-11-26T03:49:35.186Z,28.90
2017-11-26T03:50:35.180Z,29.30
2017-11-26T03:51:34.871Z,26.90
2017-11-26T03:52:35.442Z,28.00
2017-11-26T03:53:35.029Z,23.40
2017-11-26T03:54:36.176Z,31.50
2017-11-26T03:55:35.729Z,34.00
2017-11-26T03:56:35.762Z,28.80
2017-11-26T03:57:35.504Z,29.80
2017-11-26T03:58:35.283Z,28.10
2017-11-26T03:59:34.864Z,24.40
2017-11-26T04:00:35.447Z,26.80
2017-11-26T04:01:35.258Z,30.70
2017-11-26T04:02:35.050Z,30.10
2017-11-26T04:03:35.822Z,30.40
2017-11-26T04:04:35.265Z,31.20
2017-11-26T04:05:36.018Z,31.00
2017-11-26T04:06:35.344Z,30.70
2017-11-26T04:07:35.031Z,30.40
2017-11-26T04:08:35.562Z,34.50
2017-11-26T04:09:35.055Z,35.90
2017-11-26T04:10:35.663Z,26.90
2017-11-26T04:11:35.415Z,28.20
2017-11-26T04:12:35.126Z,31.90
2017-11-26T04:13:35.608Z,35.60
2017-11-26T04:14:34.952Z,36.20
2017-11-26T04:15:35.353Z,25.40
2017-11-26T04:16:34.912Z,36.50
2017-11-26T04:17:35.262Z,31.90
2017-11-26T04:18:34.645Z,36.80
2017-11-26T04:19:35.107Z,36.10
2017-11-26T04:20:35.562Z,38.90
2017-11-26T04:21:35.069Z,34.40
2017-11-26T04:22:35.508Z,38.90
2017-11-26T04:23:34.930Z,33.00
2017-11-26T04:24:35.461Z,30.10
2017-11-26T04:25:34.868Z,33.50
2017-11-26T04:26:35.219Z,35.00
2017-11-26T04:27:35.631Z,38.90
2017-11-26T04:28:35.079Z,31.20
2017-11-26T04:29:35.478Z,35.10
2017-11-26T04:30:34.855Z,30.00
2017-11-26T04:31:35.326Z,33.90
2017-11-26T04:32:34.910Z,33.50
2017-11-26T04:33:35.226Z,28.70
2017-11-26T04:34:35.538Z,40.90
2017-11-26T04:35:35.208Z,33.90
2017-11-26T04:36:35.612Z,35.90
2017-11-26T04:37:34.995Z,28.50
2017-11-26T04:38:35.153Z,30.70
2017-11-26T04:39:35.553Z,34.80
2017-11-26T04:40:34.995Z,30.70
2017-11-26T04:41:34.707Z,39.00
2017-11-26T04:42:35.251Z,30.60
2017-11-26T04:43:34.919Z,29.60
2017-11-26T04:44:35.666Z,35.90
2017-11-26T04:45:35.206Z,36.60
2017-11-26T04:46:35.639Z,33.40
2017-11-26T04:47:35.168Z,24.80
2017-11-26T04:48:35.399Z,29.20
2017-11-26T04:49:34.880Z,33.00
2017-11-26T04:50:34.921Z,34.10
2017-11-26T04:51:35.426Z,27.90
2017-11-26T04:52:34.971Z,22.00
2017-11-26T04:53:35.781Z,27.30
2017-11-26T04:54:35.652Z,29.40
2017-11-26T04:55:35.207Z,23.60
2017-11-26T04:56:35.210Z,25.50
2017-11-26T04:57:34.915Z,27.10
2017-11-26T04:58:35.622Z,27.60
2017-11-26T04:59:35.448Z,24.80
2017-11-26T05:00:34.958Z,22.90
2017-11-26T05:01:36.091Z,31.60
2017-11-26T05:02:35.561Z,29.40
2017-11-26T05:03:35.014Z,26.40
2017-11-26T05:04:35.409Z,26.90
2017-11-26T05:05:34.806Z,25.70
2017-11-26T05:06:35.517Z,21.30
2017-11-26T05:07:35.462Z,25.80
2017-11-26T05:08:35.402Z,19.80
2017-11-26T05:09:34.993Z,26.50
2017-11-26T05:10:35.398Z,22.80
2017-11-26T05:11:34.890Z,23.90
2017-11-26T05:12:35.623Z,25.70
2017-11-26T05:13:35.248Z,22.50
2017-11-26T05:14:35.986Z,27.60
2017-11-26T05:15:35.466Z,24.30
2017-11-26T05:16:34.931Z,30.50
2017-11-26T05:17:36.168Z,26.40
2017-11-26T05:18:35.073Z,24.90
2017-11-26T05:19:35.439Z,32.70
2017-11-26T05:20:35.161Z,30.90
2017-11-26T05:21:35.550Z,29.90
2017-11-26T05:22:35.035Z,29.60
2017-11-26T05:23:35.631Z,32.30
2017-11-26T05:24:35.279Z,24.30
2017-11-26T05:25:34.784Z,29.20
2017-11-26T05:26:35.467Z,27.10
2017-11-26T05:27:35.407Z,31.80
2017-11-26T05:28:35.728Z,22.90
2017-11-26T05:29:35.140Z,26.50
2017-11-26T05:30:35.711Z,21.40
2017-11-26T05:31:35.365Z,18.50
2017-11-26T05:32:36.185Z,24.30
2017-11-26T05:33:35.715Z,24.30
2017-11-26T05:34:35.102Z,21.20
2017-11-26T05:35:34.884Z,20.90
2017-11-26T05:36:35.329Z,18.10
2017-11-26T05:37:35.532Z,23.10
2017-11-26T05:38:35.709Z,18.80
2017-11-26T05:39:35.294Z,21.20
2017-11-26T05:40:34.750Z,22.50
2017-11-26T05:41:35.468Z,18.80
2017-11-26T05:42:35.088Z,16.30
2017-11-26T05:43:35.723Z,19.40
2017-11-26T05:44:35.142Z,27.10
2017-11-26T05:45:34.924Z,25.40
2017-11-26T05:46:35.670Z,29.60
2017-11-26T05:47:35.649Z,24.20
2017-11-26T05:48:35.835Z,23.10
2017-11-26T05:49:36.259Z,23.50
2017-11-26T05:50:34.896Z,22.00
2017-11-26T05:51:35.832Z,15.00
2017-11-26T05:52:35.171Z,14.10
2017-11-26T05:53:36.076Z,18.90
2017-11-26T05:54:36.904Z,22.30
2017-11-26T05:55:35.319Z,16.90
2017-11-26T05:56:35.018Z,16.10
2017-11-26T05:57:35.637Z,19.90
2017-11-26T05:58:35.452Z,19.90
2017-11-26T05:59:35.153Z,21.10
2017-11-26T06:00:35.739Z,26.00
2017-11-26T06:01:35.678Z,19.80
2017-11-26T06:02:35.435Z,22.00
2017-11-26T06:03:35.112Z,19.90
2017-11-26T06:04:35.841Z,20.80
2017-11-26T06:05:35.732Z,21.70
2017-11-26T06:06:34.827Z,19.90
2017-11-26T06:07:35.587Z,17.50
2017-11-26T06:08:35.735Z,15.70
2017-11-26T06:09:34.859Z,23.70
2017-11-26T06:10:35.470Z,22.60
2017-11-26T06:11:35.451Z,18.30
2017-11-26T06:12:35.956Z,18.90
2017-11-26T06:13:35.819Z,22.50
2017-11-26T06:14:35.706Z,16.50
2017-11-26T06:15:35.689Z,13.50
2017-11-26T06:16:35.190Z,16.80
2017-11-26T06:17:35.258Z,18.40
2017-11-26T06:18:35.278Z,15.80
2017-11-26T06:19:35.683Z,14.40
2017-11-26T06:20:35.341Z,16.50
2017-11-26T06:21:35.815Z,17.20
2017-11-26T06:22:35.221Z,22.00
2017-11-26T06:23:35.553Z,22.70
2017-11-26T06:24:35.755Z,23.20
2017-11-26T06:25:36.569Z,15.80
2017-11-26T06:26:34.970Z,18.30
2017-11-26T06:27:35.461Z,23.00
2017-11-26T06:28:34.927Z,14.00
2017-11-26T06:29:35.453Z,20.60
2017-11-26T06:30:35.096Z,19.90
2017-11-26T06:31:35.493Z,18.50
2017-11-26T06:32:34.991Z,17.80
2017-11-26T06:33:35.548Z,16.10
2017-11-26T06:34:34.971Z,13.50
2017-11-26T06:35:35.284Z,15.60
2017-11-26T06:36:35.721Z,18.10
2017-11-26T06:37:35.184Z,18.40
2017-11-26T06:38:35.636Z,19.80
2017-11-26T06:39:35.062Z,16.00
2017-11-26T06:40:35.685Z,16.90
2017-11-26T06:41:35.097Z,16.30
2017-11-26T06:42:35.488Z,19.60
2017-11-26T06:43:35.009Z,17.80
2017-11-26T06:44:35.210Z,17.20
2017-11-26T06:45:35.696Z,18.00
2017-11-26T06:46:35.311Z,20.60
2017-11-26T06:47:35.738Z,19.40
2017-11-26T06:48:35.131Z,15.90
2017-11-26T06:49:35.555Z,17.20
2017-11-26T06:50:35.407Z,19.20
2017-11-26T06:51:34.926Z,19.20
2017-11-26T06:52:36.369Z,16.30
2017-11-26T06:53:34.959Z,16.20
2017-11-26T06:54:35.632Z,16.70
2017-11-26T06:55:35.114Z,20.80
2017-11-26T06:56:35.553Z,16.00
2017-11-26T06:57:34.855Z,14.80
2017-11-26T06:58:35.337Z,16.40
2017-11-26T06:59:35.079Z,19.00
2017-11-26T07:00:35.646Z,15.00
2017-11-26T07:01:35.099Z,16.40
2017-11-26T07:02:35.210Z,18.00
2017-11-26T07:03:35.698Z,17.50
2017-11-26T07:04:35.185Z,16.50
2017-11-26T07:05:35.936Z,19.30
2017-11-26T07:06:35.357Z,18.00
2017-11-26T07:07:47.384Z,17.90
2017-11-26T07:09:23.322Z,14.80
2017-11-26T07:10:23.214Z,13.90
2017-11-26T07:11:24.018Z,15.80
2017-11-26T07:12:23.446Z,13.00
2017-11-26T07:13:23.168Z,14.00
2017-11-26T07:14:23.109Z,11.60
2017-11-26T07:15:23.526Z,16.40
2017-11-26T07:16:23.251Z,16.00
2017-11-26T07:17:23.758Z,14.00
2017-11-26T07:18:23.125Z,12.90
2017-11-26T07:19:23.545Z,13.50
2017-11-26T07:20:24.108Z,15.30
2017-11-26T07:21:23.616Z,13.30
2017-11-26T07:22:23.095Z,14.30
2017-11-26T07:23:23.614Z,12.70
2017-11-26T07:24:23.173Z,15.30
2017-11-26T07:25:23.766Z,16.70
2017-11-26T07:26:23.215Z,20.10
2017-11-26T07:27:23.657Z,17.60
2017-11-26T07:28:23.087Z,19.30
2017-11-26T07:29:23.548Z,17.30
2017-11-26T07:30:23.613Z,14.60
2017-11-26T07:31:23.089Z,19.90
2017-11-26T07:32:23.621Z,17.50
2017-11-26T07:33:23.164Z,11.10
2017-11-26T07:34:23.790Z,10.50
2017-11-26T07:35:23.374Z,14.50
2017-11-26T07:36:23.906Z,15.20
2017-11-26T07:37:23.564Z,15.90
2017-11-26T07:38:24.093Z,14.30
2017-11-26T07:39:23.639Z,20.40
2017-11-26T07:40:23.188Z,15.40
2017-11-26T07:41:23.603Z,13.10
2017-11-26T07:42:24.066Z,14.00
2017-11-26T07:43:23.654Z,16.00
2017-11-26T07:44:23.138Z,14.30
2017-11-26T07:45:23.705Z,13.00
2017-11-26T07:46:23.312Z,13.20
2017-11-26T07:47:23.924Z,12.30
2017-11-26T07:48:23.828Z,14.90
2017-11-26T07:49:23.452Z,16.10
2017-11-26T07:50:24.210Z,18.30
2017-11-26T07:51:24.013Z,13.90
2017-11-26T07:52:23.665Z,13.30
2017-11-26T07:53:23.525Z,10.60
2017-11-26T07:54:23.626Z,10.00
2017-11-26T07:55:24.425Z,12.30
2017-11-26T07:56:24.071Z,11.30
2017-11-26T07:57:23.838Z,13.80
2017-11-26T07:58:23.540Z,12.30
2017-11-26T07:59:23.254Z,13.00
2017-11-26T08:00:23.977Z,14.10
2017-11-26T08:01:23.678Z,8.30
2017-11-26T08:02:23.174Z,15.10
2017-11-26T08:03:23.810Z,11.20
2017-11-26T08:04:23.390Z,12.00
2017-11-26T08:05:23.288Z,11.70
2017-11-26T08:06:23.847Z,11.00
2017-11-26T08:07:23.753Z,14.80
2017-11-26T08:08:23.619Z,14.60
2017-11-26T08:09:23.460Z,11.30
2017-11-26T08:10:23.736Z,9.20
2017-11-26T08:11:23.692Z,19.10
2017-11-26T08:12:23.489Z,8.40
2017-11-26T08:13:23.447Z,11.50
2017-11-26T08:14:23.366Z,12.60
2017-11-26T08:15:24.652Z,14.70
2017-11-26T08:16:23.738Z,16.20
2017-11-26T08:17:23.728Z,13.80
2017-11-26T08:18:23.953Z,14.90
2017-11-26T08:19:23.781Z,14.20
2017-11-26T08:20:23.469Z,10.60
2017-11-26T08:21:23.792Z,10.60
2017-11-26T08:22:23.649Z,13.90
2017-11-26T08:23:23.409Z,13.70
2017-11-26T08:24:24.181Z,13.10
2017-11-26T08:25:23.894Z,11.70
2017-11-26T08:26:23.827Z,18.50
2017-11-26T08:27:23.746Z,10.60
2017-11-26T08:28:23.598Z,10.50
2017-11-26T08:29:23.589Z,12.60
2017-11-26T08:30:23.693Z,9.30
2017-11-26T08:31:23.643Z,10.60
2017-11-26T08:32:23.670Z,10.90
2017-11-26T08:33:23.482Z,10.60
2017-11-26T08:34:24.120Z,12.40
2017-11-26T08:35:23.613Z,10.60
2017-11-26T08:36:25.219Z,16.10
2017-11-26T08:37:23.974Z,11.40
2017-11-26T08:38:23.427Z,12.90
2017-11-26T08:39:24.139Z,11.10
2017-11-26T08:40:24.056Z,13.40
2017-11-26T08:41:23.934Z,8.80
2017-11-26T08:42:23.686Z,12.00
2017-11-26T08:43:23.588Z,15.20
2017-11-26T08:44:23.918Z,17.80
2017-11-26T08:45:23.728Z,11.30
2017-11-26T08:46:23.836Z,11.60
2017-11-26T08:47:23.603Z,14.30
2017-11-26T08:48:23.414Z,13.40
2017-11-26T08:49:24.379Z,13.50
2017-11-26T08:50:23.992Z,21.10
2017-11-26T08:51:23.584Z,21.10
2017-11-26T08:52:23.335Z,14.80
2017-11-26T08:53:23.386Z,20.30
2017-11-26T08:54:24.223Z,16.30
2017-11-26T08:55:23.968Z,16.00
2017-11-26T08:56:23.671Z,15.00
2017-11-26T08:57:24.061Z,14.30
2017-11-26T08:58:23.964Z,16.40
2017-11-26T08:59:23.804Z,11.70
2017-11-26T09:00:23.540Z,15.80
2017-11-26T09:01:23.583Z,11.50
2017-11-26T09:02:23.324Z,16.30
2017-11-26T09:03:24.684Z,12.30
2017-11-26T09:04:23.687Z,14.60
2017-11-26T09:05:23.739Z,23.00
2017-11-26T09:06:23.749Z,16.00
2017-11-26T09:07:24.270Z,22.20
2017-11-26T09:08:24.169Z,20.10
2017-11-26T09:09:23.766Z,22.30
2017-11-26T09:10:24.335Z,20.00
2017-11-26T09:11:24.322Z,19.30
2017-11-26T09:12:24.364Z,20.60
2017-11-26T09:13:24.150Z,16.90
2017-11-26T09:14:24.222Z,17.80
2017-11-26T09:15:25.218Z,20.00
2017-11-26T09:16:24.543Z,19.20
2017-11-26T09:17:23.597Z,17.10
2017-11-26T09:18:24.149Z,19.50
2017-11-26T09:19:24.623Z,24.40
2017-11-26T09:20:24.502Z,23.50
2017-11-26T09:21:24.518Z,17.90
2017-11-26T09:22:23.937Z,29.60
2017-11-26T09:23:23.815Z,23.60
2017-11-26T09:24:24.635Z,21.50
2017-11-26T09:25:26.431Z,22.10
2017-11-26T09:26:24.509Z,26.80
2017-11-26T09:27:27.302Z,15.70
2017-11-26T09:28:25.666Z,17.80
2017-11-26T09:29:24.891Z,24.80
2017-11-26T09:30:23.991Z,19.20
2017-11-26T09:31:23.720Z,20.00
2017-11-26T09:32:23.889Z,17.20
2017-11-26T09:33:24.595Z,18.20
2017-11-26T09:34:23.551Z,20.70
2017-11-26T09:35:23.494Z,22.40
2017-11-26T09:36:23.462Z,29.70
2017-11-26T09:37:24.434Z,22.50
2017-11-26T09:38:24.346Z,20.40
2017-11-26T09:39:24.189Z,18.80
2017-11-26T09:40:23.908Z,17.70
2017-11-26T09:41:23.955Z,22.10
2017-11-26T09:42:24.812Z,19.70
2017-11-26T09:43:23.753Z,29.00
2017-11-26T09:44:24.030Z,20.80
2017-11-26T09:45:24.347Z,22.00
2017-11-26T09:46:24.447Z,17.80
2017-11-26T09:47:24.553Z,20.80
2017-11-26T09:48:24.382Z,18.50
2017-11-26T09:49:24.184Z,21.30
2017-11-26T09:50:23.960Z,15.90
2017-11-26T09:51:24.621Z,22.20
2017-11-26T09:52:24.382Z,19.50
2017-11-26T09:53:24.222Z,23.00
2017-11-26T09:54:24.333Z,21.00
2017-11-26T09:55:25.244Z,13.90
2017-11-26T09:56:24.087Z,16.50
2017-11-26T09:57:24.276Z,17.90
2017-11-26T09:58:24.207Z,15.30
2017-11-26T09:59:24.063Z,14.90
2017-11-26T10:00:23.897Z,17.20
2017-11-26T10:01:23.764Z,18.00
2017-11-26T10:02:23.576Z,19.10
2017-11-26T10:03:25.146Z,20.50
2017-11-26T10:04:24.957Z,16.50
2017-11-26T10:05:24.081Z,17.80
2017-11-26T10:06:23.940Z,16.50
2017-11-26T10:07:23.783Z,11.50
2017-11-26T10:08:23.592Z,14.50
2017-11-26T10:09:23.821Z,16.30
2017-11-26T10:10:23.809Z,13.60
2017-11-26T10:11:24.268Z,16.10
2017-11-26T10:12:24.232Z,11.70
2017-11-26T10:13:24.154Z,15.40
2017-11-26T10:14:24.145Z,14.10
2017-11-26T10:15:24.420Z,14.60
2017-11-26T10:16:24.024Z,13.80
2017-11-26T10:17:24.160Z,12.90
2017-11-26T10:18:25.200Z,14.00
2017-11-26T10:19:24.448Z,17.40
2017-11-26T10:20:24.969Z,8.20
2017-11-26T10:21:23.801Z,12.50
2017-11-26T10:22:24.216Z,11.10
2017-11-26T10:23:24.628Z,10.80
2017-11-26T10:24:24.553Z,8.50
2017-11-26T10:25:24.521Z,15.50
2017-11-26T10:26:24.628Z,16.50
2017-11-26T10:27:23.559Z,15.80
2017-11-26T10:28:23.465Z,13.40
2017-11-26T10:29:24.483Z,13.30
2017-11-26T10:30:24.354Z,12.80
2017-11-26T10:31:24.397Z,10.10
2017-11-26T10:32:25.382Z,6.20
2017-11-26T10:33:25.219Z,16.50
2017-11-26T10:34:24.063Z,17.30
2017-11-26T10:35:23.910Z,16.20
2017-11-26T10:36:23.771Z,14.90
2017-11-26T10:37:23.766Z,15.10
2017-11-26T10:38:23.892Z,17.90
2017-11-26T10:39:23.840Z,16.00
2017-11-26T10:40:24.251Z,10.80
2017-11-26T10:41:24.149Z,9.30
2017-11-26T10:42:24.083Z,14.00
2017-11-26T10:43:24.119Z,11.30
2017-11-26T10:44:24.711Z,10.00
2017-11-26T10:45:23.646Z,13.00
2017-11-26T10:46:23.577Z,14.10
2017-11-26T10:47:23.501Z,15.50
2017-11-26T10:48:24.456Z,15.80
2017-11-26T10:49:24.322Z,13.70
2017-11-26T10:50:24.076Z,15.20
2017-11-26T10:51:23.774Z,14.80
2017-11-26T10:52:23.744Z,8.50
2017-11-26T10:53:23.784Z,13.00
2017-11-26T10:54:23.458Z,13.50
2017-11-26T10:55:26.382Z,14.70
2017-11-26T10:56:24.557Z,13.70
2017-11-26T10:57:25.118Z,18.10
2017-11-26T10:58:24.588Z,18.90
2017-11-26T10:59:23.459Z,14.20
2017-11-26T11:00:24.636Z,9.40
2017-11-26T11:01:25.473Z,11.40
2017-11-26T11:02:24.010Z,10.80
2017-11-26T11:03:24.088Z,13.90
2017-11-26T11:04:24.444Z,12.90
2017-11-26T11:05:24.478Z,9.30
2017-11-26T11:06:49.383Z,12.60
2017-11-26T11:07:52.182Z,10.70
2017-11-26T11:08:50.151Z,10.60
2017-11-26T11:09:49.390Z,15.80
2017-11-26T11:10:49.514Z,8.30
2017-11-26T11:11:49.673Z,13.00
2017-11-26T11:12:50.842Z,11.60
2017-11-26T11:13:51.680Z,10.40
2017-11-26T11:14:49.811Z,12.80
2017-11-26T11:15:49.870Z,12.00
2017-11-26T11:16:49.830Z,8.20
2017-11-26T11:17:49.604Z,8.00
2017-11-26T11:18:49.533Z,9.50
2017-11-26T11:19:50.389Z,7.20
2017-11-26T11:20:51.263Z,8.40
2017-11-26T11:22:58.487Z,7.70
2017-11-26T11:23:58.379Z,10.40
2017-11-26T11:25:00.102Z,9.40
2017-11-26T11:25:57.961Z,7.10
2017-11-26T11:26:58.948Z,9.70
2017-11-26T11:27:58.818Z,11.80
2017-11-26T11:28:58.754Z,6.80
2017-11-26T11:29:58.908Z,6.50
2017-11-26T11:31:52.902Z,11.10
2017-11-26T11:32:54.381Z,9.10
2017-11-26T11:33:53.813Z,6.70
2017-11-26T11:34:53.558Z,11.90
2017-11-26T11:35:53.658Z,6.50
2017-11-26T11:36:53.544Z,5.80
2017-11-26T11:37:53.219Z,6.00
2017-11-26T11:38:53.856Z,6.80
2017-11-26T11:39:54.202Z,5.70
2017-11-26T11:40:52.997Z,5.80
2017-11-26T11:41:54.031Z,7.90
2017-11-26T11:42:53.861Z,4.30
2017-11-26T11:43:53.830Z,5.40
2017-11-26T11:44:54.549Z,6.00
2017-11-26T11:45:53.602Z,6.40
2017-11-26T11:46:53.763Z,5.10
2017-11-26T11:47:53.914Z,4.00
2017-11-26T11:48:54.648Z,7.80
2017-11-26T11:49:53.730Z,4.00
2017-11-26T11:50:53.541Z,5.80
2017-11-26T11:51:53.449Z,5.10
2017-11-26T11:52:53.793Z,5.00
2017-11-26T11:53:53.789Z,5.10
2017-11-26T11:54:53.618Z,4.70
2017-11-26T11:55:53.513Z,10.10
2017-11-26T11:56:53.541Z,5.20
2017-11-26T11:57:53.492Z,6.40
2017-11-26T11:58:53.490Z,3.20
2017-11-26T11:59:54.278Z,6.00
2017-11-26T12:00:53.583Z,6.40
2017-11-26T12:01:53.624Z,8.20
2017-11-26T12:02:53.492Z,7.40
2017-11-26T12:03:53.525Z,7.10
2017-11-26T12:04:55.306Z,6.10
2017-11-26T12:06:42.241Z,8.20
2017-11-26T12:07:45.279Z,8.60
2017-11-26T12:08:38.703Z,7.40
2017-11-26T12:10:22.340Z,8.90
2017-11-26T12:11:22.807Z,10.70
2017-11-26T12:12:23.536Z,8.70
2017-11-26T12:13:21.006Z,7.60
2017-11-26T12:14:21.105Z,4.70
2017-11-26T12:15:21.564Z,9.10
2017-11-26T12:16:20.677Z,5.80
2017-11-26T12:17:23.405Z,7.80
2017-11-26T12:18:20.743Z,3.80
2017-11-26T12:19:22.587Z,7.40
2017-11-26T12:20:21.634Z,4.70
2017-11-26T12:21:20.644Z,6.90
2017-11-26T12:22:20.483Z,7.90
2017-11-26T12:23:20.760Z,7.40
2017-11-26T12:24:21.614Z,8.10
2017-11-26T12:25:21.465Z,9.00
2017-11-26T12:26:20.986Z,7.60
2017-11-26T12:27:21.585Z,5.10
2017-11-26T12:28:20.183Z,5.30
2017-11-26T12:29:26.905Z,3.60
2017-11-26T12:30:20.432Z,6.60
2017-11-26T12:31:25.559Z,6.70
2017-11-26T12:32:21.201Z,7.60
2017-11-26T12:33:21.661Z,6.60
2017-11-26T12:34:28.508Z,7.30
2017-11-26T12:35:20.417Z,3.40
2017-11-26T12:36:20.630Z,8.20
2017-11-26T12:37:21.125Z,6.60
2017-11-26T12:38:21.182Z,4.20
2017-11-26T12:39:20.669Z,7.30
2017-11-26T12:40:20.482Z,5.30
2017-11-26T12:41:20.907Z,6.50
2017-11-26T12:42:21.086Z,7.00
2017-11-26T12:43:20.335Z,6.90
2017-11-26T12:44:20.390Z,6.50
2017-11-26T12:45:20.449Z,6.50
2017-11-26T12:46:20.505Z,5.80
2017-11-26T12:47:20.687Z,11.20
2017-11-26T12:47:49.499Z,8.60
2017-11-26T12:48:49.559Z,9.60
2017-11-26T12:49:49.639Z,10.10
2017-11-26T12:50:50.111Z,9.10
2017-11-26T12:51:50.323Z,12.10
2017-11-26T12:52:51.676Z,8.70
2017-11-26T12:53:51.297Z,14.70
2017-11-26T12:54:51.854Z,9.90
2017-11-26T12:55:50.294Z,2.20
2017-11-26T12:56:49.979Z,4.90
2017-11-26T12:57:50.717Z,5.70
2017-11-26T12:58:49.827Z,3.20
2017-11-26T12:59:49.697Z,4.70
2017-11-26T13:00:49.364Z,5.00
2017-11-26T13:01:51.356Z,5.30
2017-11-26T13:02:51.031Z,4.80
2017-11-26T13:03:51.173Z,5.40
2017-11-26T13:04:50.271Z,6.30